createdAt,value
2023-03-11T00:56:58.925Z,37.39
2023-03-11T00:57:59.782Z,37.41
2023-03-11T00:58:59.035Z,37.38
2023-03-11T00:59:59.077Z,37.40
2023-03-11T01:00:59.194Z,37.38
2023-03-11T01:01:59.162Z,37.38
2023-03-11T01:02:59.218Z,37.37
2023-03-11T01:03:59.326Z,37.37
2023-03-11T01:04:59.381Z,37.35
2023-03-11T01:06:00.284Z,37.34
2023-03-11T01:06:59.460Z,37.33
2023-03-11T01:07:59.496Z,37.33
2023-03-11T01:09:59.599Z,37.33
2023-03-11T01:10:59.636Z,37.34
2023-03-11T01:11:59.697Z,37.31
2023-03-11T01:12:59.726Z,37.32
2023-03-11T01:13:59.767Z,37.33
2023-03-11T01:14:59.856Z,37.31
2023-03-11T01:15:59.956Z,37.31
2023-03-11T01:16:59.922Z,37.29
2023-03-11T01:17:59.965Z,37.28
2023-03-11T01:19:00.003Z,37.29
2023-03-11T01:21:00.098Z,37.28
2023-03-11T01:22:00.153Z,37.28
2023-03-11T01:23:00.209Z,37.28
2023-03-11T01:24:00.247Z,37.26
2023-03-11T01:25:00.306Z,37.29
2023-03-11T01:26:00.340Z,37.29
2023-03-11T04:08:08.923Z,36.80
2023-03-11T04:09:08.992Z,36.82
2023-03-11T04:10:09.052Z,36.80
2023-03-11T04:11:09.095Z,36.81
2023-03-11T04:12:09.143Z,36.79
2023-03-11T04:13:09.203Z,36.79
2023-03-11T04:14:09.252Z,36.80
2023-03-11T04:15:09.303Z,36.77
2023-03-11T04:16:09.349Z,36.80
2023-03-11T04:17:09.448Z,36.79
2023-03-11T04:18:09.490Z,36.78
2023-03-11T04:19:09.842Z,36.79
2023-03-11T04:20:09.847Z,36.77
2023-03-11T04:21:09.615Z,36.77
2023-03-11T04:22:09.748Z,36.76
2023-03-11T04:23:09.784Z,36.78
2023-03-11T04:24:09.775Z,36.77
2023-03-11T04:25:09.834Z,36.76
2023-03-11T04:26:09.880Z,36.75
2023-03-11T04:27:09.930Z,36.75
2023-03-11T04:28:09.983Z,36.73
2023-03-11T04:29:10.065Z,36.75
2023-03-11T04:30:10.119Z,36.72
2023-03-11T04:31:10.218Z,36.74
2023-03-11T04:32:10.204Z,36.74
2023-03-11T04:33:10.261Z,36.73
2023-03-11T04:34:10.360Z,36.73
2023-03-11T04:35:10.399Z,36.74
2023-03-11T04:36:10.438Z,36.73
2023-03-11T04:37:11.336Z,36.73
2023-03-11T04:38:10.538Z,36.73
2023-03-11T04:39:10.595Z,36.71
2023-03-11T04:40:10.653Z,36.72
2023-03-11T04:41:10.696Z,36.71
2023-03-11T04:42:10.758Z,36.73
2023-03-11T04:43:10.809Z,36.72
2023-03-11T04:44:10.855Z,36.72
2023-03-11T04:45:10.933Z,36.68
2023-03-11T04:46:11.009Z,36.67
2023-03-11T04:47:11.041Z,36.68
2023-03-11T04:48:11.097Z,36.70
2023-03-11T04:49:11.156Z,36.68
2023-03-11T04:50:11.230Z,36.70
2023-03-11T04:51:11.280Z,36.69
2023-03-11T04:52:11.340Z,36.69
2023-03-11T04:53:11.403Z,36.70
2023-03-11T04:54:11.454Z,36.68
2023-03-11T04:55:11.522Z,36.68
2023-03-11T04:56:11.581Z,36.69
2023-03-11T04:57:11.656Z,36.68
2023-03-11T04:58:11.703Z,36.69
2023-03-11T04:59:11.764Z,36.67
2023-03-11T05:00:11.817Z,36.66
2023-03-11T05:01:11.903Z,36.65
2023-03-11T05:02:13.079Z,36.66
2023-03-11T05:03:12.040Z,36.64
2023-03-11T05:04:12.174Z,36.66
2023-03-11T05:05:12.346Z,36.64
2023-03-11T05:06:12.839Z,36.63
2023-03-11T05:07:12.226Z,36.64
2023-03-11T05:08:12.287Z,36.61
2023-03-11T05:09:13.334Z,36.62
2023-03-11T05:10:12.482Z,36.62
2023-03-11T05:11:12.466Z,36.62
2023-03-11T05:12:12.545Z,36.62
2023-03-11T05:13:12.605Z,36.62
2023-03-11T05:14:12.643Z,36.62
2023-03-11T05:15:12.691Z,36.59
2023-03-11T05:16:12.799Z,36.61
2023-03-11T05:17:12.813Z,36.62
2023-03-11T05:18:12.884Z,36.60
2023-03-11T05:19:12.926Z,36.61
2023-03-11T05:20:15.101Z,36.59
2023-03-11T05:21:13.356Z,36.61
2023-03-11T05:22:13.293Z,36.59
2023-03-11T05:23:13.354Z,36.59
2023-03-11T05:24:13.412Z,36.58
2023-03-11T05:25:13.471Z,36.59
2023-03-11T05:26:13.595Z,36.60
2023-03-11T05:27:13.593Z,36.57
2023-03-11T05:28:13.649Z,36.60
2023-03-11T05:29:13.709Z,36.55
2023-03-11T05:30:13.776Z,36.56
2023-03-11T05:31:13.990Z,36.56
2023-03-11T05:32:13.939Z,36.57
2023-03-11T05:33:13.973Z,36.54
2023-03-11T05:34:14.005Z,36.54
2023-03-11T05:35:14.093Z,36.54
2023-03-11T05:36:14.150Z,36.56
2023-03-11T05:37:14.211Z,36.51
2023-03-11T05:38:14.854Z,36.51
2023-03-11T05:39:14.314Z,36.54
2023-03-11T05:40:14.454Z,36.53
2023-03-11T05:41:14.436Z,36.54
2023-03-11T05:42:14.505Z,36.51
2023-03-11T05:43:14.570Z,36.48
2023-03-11T05:44:14.628Z,36.50
2023-03-11T06:56:18.943Z,36.01
2023-03-11T06:57:18.988Z,35.98
2023-03-11T06:58:19.052Z,36.00
2023-03-11T06:59:19.105Z,35.99
2023-03-11T07:00:19.157Z,35.98
2023-03-11T07:01:19.247Z,35.94
2023-03-11T07:02:19.269Z,35.94
2023-03-11T07:03:19.322Z,35.96
2023-03-11T07:04:19.445Z,35.92
2023-03-11T07:05:19.429Z,35.92
2023-03-11T07:06:19.496Z,35.93
2023-03-11T07:07:19.549Z,35.92
2023-03-11T07:08:19.615Z,35.91
2023-03-11T07:09:19.663Z,35.90
2023-03-11T07:10:20.216Z,35.91
2023-03-11T07:11:20.175Z,35.91
2023-03-11T07:12:20.401Z,35.88
2023-03-11T07:13:19.897Z,35.90
2023-03-11T07:14:20.508Z,35.89
2023-03-11T07:15:20.881Z,35.88
2023-03-11T07:16:20.063Z,35.91
2023-03-11T07:17:20.129Z,35.89
2023-03-11T07:18:20.172Z,35.90
2023-03-11T07:19:20.503Z,35.89
2023-03-11T07:20:20.336Z,35.87
2023-03-11T07:21:20.337Z,35.87
2023-03-11T07:22:20.392Z,35.88
2023-03-11T07:23:20.429Z,35.88
2023-03-11T07:24:20.730Z,35.88
2023-03-11T07:25:20.529Z,35.87
2023-03-11T07:26:20.580Z,35.87
2023-03-11T07:27:20.896Z,35.87
2023-03-11T07:28:20.683Z,35.84
2023-03-11T07:29:21.134Z,35.85
2023-03-11T07:30:20.798Z,35.83
2023-03-11T07:31:21.249Z,35.82
2023-03-11T07:32:20.952Z,35.83
2023-03-11T07:33:20.930Z,35.84
2023-03-11T07:34:20.987Z,35.83
2023-03-11T07:35:21.037Z,35.82
2023-03-11T07:36:21.114Z,35.79
2023-03-11T07:37:21.216Z,35.81
2023-03-11T07:38:21.221Z,35.81
2023-03-11T07:39:21.278Z,35.79
2023-03-11T07:40:21.882Z,35.78
2023-03-11T07:41:21.894Z,35.79
2023-03-11T07:42:21.929Z,35.77
2023-03-11T07:43:21.482Z,35.78
2023-03-11T07:44:21.547Z,35.77
2023-03-11T07:45:21.591Z,35.77
2023-03-11T07:46:22.026Z,35.76
2023-03-11T07:47:21.698Z,35.75
2023-03-11T07:48:21.748Z,35.76
2023-03-11T07:49:21.819Z,35.72
2023-03-11T07:50:21.868Z,35.71
2023-03-11T07:51:21.960Z,35.72
2023-03-11T07:52:21.964Z,35.71
2023-03-11T07:53:22.032Z,35.69
2023-03-11T07:54:22.088Z,35.70
2023-03-11T07:55:22.890Z,35.71
2023-03-11T07:56:22.177Z,35.71
2023-03-11T07:57:22.235Z,35.70
2023-03-11T07:58:22.280Z,35.70
2023-03-11T07:59:22.345Z,35.70
2023-03-11T08:00:22.387Z,35.70
2023-03-11T08:01:22.475Z,35.68
2023-03-11T08:02:22.549Z,35.69
2023-03-11T08:03:22.584Z,35.67
2023-03-11T08:04:22.611Z,35.68
2023-03-11T08:05:22.664Z,35.64
2023-03-11T08:06:22.709Z,35.67
2023-03-11T08:07:22.774Z,35.64
2023-03-11T08:08:22.820Z,35.64
2023-03-11T08:09:22.908Z,35.61
2023-03-11T08:10:22.933Z,35.61
2023-03-11T08:12:23.031Z,35.60
2023-03-11T08:13:23.096Z,35.57
2023-03-11T08:14:23.160Z,35.57
2023-03-11T08:15:23.210Z,35.56
2023-03-11T08:16:23.254Z,35.56
2023-03-11T10:19:28.925Z,35.12
2023-03-11T10:44:28.940Z,34.96
2023-03-11T10:45:28.976Z,34.95
2023-03-11T10:46:29.004Z,34.97
2023-03-11T10:47:29.035Z,34.95
2023-03-11T10:48:29.069Z,34.96
2023-03-11T10:49:29.108Z,34.97
2023-03-11T10:50:29.139Z,34.96
2023-03-11T10:51:29.234Z,34.97
2023-03-11T10:52:29.212Z,34.96
2023-03-11T10:53:29.229Z,34.96
2023-03-11T10:54:29.287Z,34.96
2023-03-11T10:55:29.324Z,34.96
2023-03-11T10:56:29.434Z,34.95
2023-03-11T10:57:29.421Z,34.99
2023-03-11T10:58:29.406Z,34.98
2023-03-11T10:59:29.509Z,34.96
2023-03-11T11:00:29.540Z,34.96
2023-03-11T11:01:29.632Z,34.98
2023-03-11T11:02:29.598Z,34.98
2023-03-11T11:03:29.638Z,34.97
2023-03-11T11:04:29.823Z,34.99
2023-03-11T11:05:29.761Z,34.98
2023-03-11T11:06:29.786Z,34.99
2023-03-11T11:07:29.826Z,34.96
2023-03-11T11:08:29.948Z,34.95
2023-03-11T11:09:30.140Z,34.99
2023-03-11T11:10:30.069Z,34.96
2023-03-11T11:11:30.110Z,34.96
2023-03-11T11:12:30.131Z,34.94
2023-03-11T11:13:30.264Z,34.98
2023-03-11T11:14:30.264Z,34.97
2023-03-11T11:15:30.300Z,34.95
2023-03-11T11:16:30.964Z,34.97
2023-03-11T11:17:30.375Z,34.96
2023-03-11T11:18:30.485Z,34.96
2023-03-11T11:19:30.444Z,34.96
2023-03-11T11:20:30.475Z,34.96
2023-03-11T11:21:31.468Z,34.96
2023-03-11T11:22:30.545Z,34.92
2023-03-11T11:23:30.575Z,34.96
2023-03-11T11:24:30.626Z,34.93
2023-03-11T11:25:30.709Z,34.94
2023-03-11T11:26:30.699Z,34.95
2023-03-11T11:27:30.961Z,34.95
2023-03-11T11:28:30.791Z,34.93
2023-03-11T11:29:30.802Z,34.92
2023-03-11T11:30:30.878Z,34.93
2023-03-11T11:31:30.874Z,34.92
2023-03-11T11:32:30.948Z,34.95
2023-03-11T11:33:30.953Z,34.93
2023-03-11T11:34:31.950Z,34.91
2023-03-11T11:35:31.465Z,34.93
2023-03-11T11:36:31.077Z,34.95
2023-03-11T11:37:31.113Z,34.95
2023-03-11T11:38:31.148Z,34.91
2023-03-11T11:39:31.234Z,34.92
2023-03-11T11:40:31.222Z,34.91
2023-03-11T11:41:31.265Z,34.90
2023-03-11T11:42:31.299Z,34.90
2023-03-11T11:43:31.318Z,34.92
2023-03-11T11:44:31.434Z,34.90
2023-03-11T11:45:31.398Z,34.92
2023-03-11T11:46:32.013Z,34.94
2023-03-11T11:47:31.492Z,34.92
2023-03-11T11:48:31.518Z,34.92
2023-03-11T11:49:31.577Z,34.91
2023-03-11T11:50:31.590Z,34.93
2023-03-11T11:51:31.684Z,34.93
2023-03-11T11:52:31.733Z,34.91
2023-03-11T11:53:31.756Z,34.92
2023-03-11T11:54:31.803Z,34.90
2023-03-11T11:55:31.849Z,34.90
2023-03-11T11:56:31.966Z,34.94
2023-03-11T11:57:31.929Z,34.93
2023-03-11T11:58:32.951Z,34.94
2023-03-11T11:59:31.987Z,34.91
2023-03-11T12:00:32.030Z,34.91
2023-03-11T12:01:32.058Z,34.90
2023-03-11T12:02:32.075Z,34.89
2023-03-11T12:03:32.289Z,34.90
2023-03-11T12:04:32.326Z,34.93
2023-03-11T12:05:32.387Z,34.91
2023-03-11T12:06:32.396Z,34.92
2023-03-11T12:07:32.955Z,34.93
2023-03-11T12:08:32.491Z,34.92
2023-03-11T12:09:32.497Z,34.90
2023-03-11T12:10:32.541Z,34.92
2023-03-11T12:11:32.958Z,34.90
2023-03-11T12:12:32.689Z,34.90
2023-03-11T12:13:32.808Z,34.91
2023-03-11T12:14:32.857Z,34.89
2023-03-11T12:15:32.944Z,34.90
2023-03-11T12:16:32.921Z,34.90
2023-03-11T12:17:32.952Z,34.88
2023-03-11T12:18:32.986Z,34.87
2023-03-11T12:19:33.092Z,34.88
2023-03-11T12:20:33.221Z,34.88
2023-03-11T12:21:33.258Z,34.89
2023-03-11T12:22:33.280Z,34.88
2023-03-11T12:23:33.306Z,34.89
2023-03-11T12:24:33.342Z,34.88
2023-03-11T12:25:33.481Z,34.89
2023-03-11T12:26:33.557Z,34.87
2023-03-11T12:27:33.619Z,34.86
2023-03-11T12:28:33.702Z,34.87
2023-03-11T12:29:33.730Z,34.88
2023-03-11T12:30:33.762Z,34.88
2023-03-11T12:31:33.846Z,34.88
2023-03-11T12:32:33.878Z,34.82
2023-03-11T12:33:33.941Z,34.85
2023-03-11T12:34:33.953Z,34.85
2023-03-11T12:35:34.058Z,34.84
2023-03-11T12:36:34.174Z,34.84
2023-03-11T12:37:34.145Z,34.84
2023-03-11T12:38:34.080Z,34.82
2023-03-11T12:39:34.233Z,34.83
2023-03-11T12:40:34.412Z,34.82
2023-03-11T12:41:34.426Z,34.82
2023-03-11T12:42:34.455Z,34.82
2023-03-11T12:43:34.489Z,34.82
2023-03-11T12:44:34.509Z,34.79
2023-03-11T12:45:34.609Z,34.80
2023-03-11T12:46:34.641Z,34.81
2023-03-11T12:47:35.721Z,34.81
2023-03-11T12:48:34.679Z,34.79
2023-03-11T12:49:34.697Z,34.79
2023-03-11T12:50:34.721Z,34.78
2023-03-11T12:51:34.785Z,34.79
2023-03-11T12:52:34.799Z,34.79
2023-03-11T12:53:34.816Z,34.81
2023-03-11T12:54:34.861Z,34.77
2023-03-11T12:55:35.472Z,34.80
2023-03-11T12:56:34.910Z,34.81
2023-03-11T12:57:34.947Z,34.78
2023-03-11T12:58:34.983Z,34.78
2023-03-11T12:59:35.013Z,34.80
2023-03-11T13:00:35.045Z,34.81
2023-03-11T13:01:35.103Z,34.79
2023-03-11T13:02:35.155Z,34.81
2023-03-11T13:03:35.155Z,34.79
2023-03-11T13:04:35.200Z,34.82
2023-03-11T13:05:35.233Z,34.80
2023-03-11T14:20:39.029Z,34.62
2023-03-11T14:37:38.927Z,34.58
2023-03-11T14:38:38.976Z,34.62
2023-03-11T14:39:39.010Z,34.57
2023-03-11T14:40:39.105Z,34.58
2023-03-11T14:41:39.080Z,34.55
2023-03-11T14:42:39.115Z,34.56
2023-03-11T14:43:39.247Z,34.56
2023-03-11T14:44:39.340Z,34.56
2023-03-11T14:45:39.382Z,34.56
2023-03-11T14:46:39.346Z,34.55
2023-03-11T14:47:39.398Z,34.54
2023-03-11T14:48:39.430Z,34.55
2023-03-11T14:49:39.552Z,34.56
2023-03-11T14:50:40.009Z,34.54
2023-03-11T14:51:39.527Z,34.55
2023-03-11T14:52:39.568Z,34.55
2023-03-11T14:53:39.606Z,34.54
2023-03-11T14:54:39.641Z,34.52
2023-03-11T14:55:39.677Z,34.52
2023-03-11T14:56:39.728Z,34.54
2023-03-11T14:57:39.763Z,34.53
2023-03-11T14:58:39.805Z,34.53
2023-03-11T14:59:39.833Z,34.54
2023-03-11T15:00:39.897Z,34.54
2023-03-11T15:01:39.941Z,34.54
2023-03-11T15:02:39.951Z,34.54
2023-03-11T15:03:40.049Z,34.56
2023-03-11T15:04:40.031Z,34.55
2023-03-11T15:05:40.044Z,34.53
2023-03-11T15:06:40.088Z,34.52
2023-03-11T15:07:40.141Z,34.51
2023-03-11T15:08:40.164Z,34.51
2023-03-11T15:09:40.229Z,34.52
2023-03-11T15:10:40.252Z,34.54
2023-03-11T15:11:40.301Z,34.52
2023-03-11T15:12:40.349Z,34.51
2023-03-11T15:13:40.390Z,34.52
2023-03-11T15:14:40.433Z,34.52
2023-03-11T15:15:40.513Z,34.51
2023-03-11T15:16:40.530Z,34.50
2023-03-11T15:17:44.389Z,34.52
2023-03-11T15:18:40.577Z,34.51
2023-03-11T15:19:40.584Z,34.52
2023-03-11T15:20:40.620Z,34.52
2023-03-11T15:21:40.623Z,34.55
2023-03-11T15:22:40.662Z,34.54
2023-03-11T15:23:40.673Z,34.56
2023-03-11T15:24:40.687Z,34.55
2023-03-11T15:25:40.709Z,34.57
2023-03-11T15:26:41.513Z,34.57
2023-03-11T15:27:40.738Z,34.60
2023-03-11T15:28:40.766Z,34.58
2023-03-11T15:29:40.775Z,34.57
2023-03-11T15:30:40.829Z,34.57
2023-03-11T15:31:40.804Z,34.58
2023-03-11T15:32:40.887Z,34.61
2023-03-11T15:33:40.844Z,34.59
2023-03-11T15:34:40.859Z,34.60
2023-03-11T15:35:41.029Z,34.60
2023-03-11T15:36:40.915Z,34.59
2023-03-11T15:37:41.524Z,34.61
2023-03-11T15:38:40.950Z,34.59
2023-03-11T15:39:40.970Z,34.61
2023-03-11T15:40:45.688Z,34.62
2023-03-11T15:41:42.016Z,34.62
2023-03-11T15:42:41.017Z,34.63
2023-03-11T15:43:41.028Z,34.63
2023-03-11T15:44:41.075Z,34.61
2023-03-11T15:45:41.070Z,34.62
2023-03-11T15:46:41.076Z,34.65
2023-03-11T15:47:41.089Z,34.64
2023-03-11T15:48:41.095Z,34.62
2023-03-11T15:49:41.117Z,34.67
2023-03-11T15:50:52.621Z,34.64
2023-03-11T15:51:42.136Z,34.67
2023-03-11T15:52:41.226Z,34.66
2023-03-11T15:53:41.185Z,34.67
2023-03-11T15:54:41.210Z,34.65
2023-03-11T15:55:41.196Z,34.66
2023-03-11T15:56:41.254Z,34.68
2023-03-11T15:57:41.246Z,34.67
2023-03-11T15:58:41.257Z,34.66
2023-03-11T15:59:41.304Z,34.68
2023-03-11T16:00:41.307Z,34.68
2023-03-11T16:01:41.341Z,34.69
2023-03-11T16:02:41.358Z,34.69
2023-03-11T16:03:41.464Z,34.71
2023-03-11T16:04:41.512Z,34.69
2023-03-11T16:05:41.399Z,34.71
2023-03-11T16:06:41.428Z,34.70
2023-03-11T16:07:41.465Z,34.69
2023-03-11T16:08:41.552Z,34.71
2023-03-11T16:09:41.478Z,34.70
2023-03-11T16:10:41.491Z,34.69
2023-03-11T16:11:41.513Z,34.73
2023-03-11T16:12:41.550Z,34.70
2023-03-11T16:13:41.607Z,34.71
2023-03-11T16:14:42.520Z,34.74
2023-03-11T16:15:41.754Z,34.73
2023-03-11T16:16:41.758Z,34.73
2023-03-11T16:17:49.803Z,34.73
2023-03-11T16:18:42.896Z,34.72
2023-03-11T16:23:51.688Z,34.74
2023-03-11T16:25:41.959Z,34.75
2023-03-11T16:26:41.981Z,34.75
2023-03-11T16:27:41.992Z,34.75
2023-03-11T16:28:42.010Z,34.78
2023-03-11T16:29:42.032Z,34.77
2023-03-11T16:30:42.053Z,34.78
2023-03-11T16:31:42.077Z,34.79
2023-03-11T16:32:42.134Z,34.78
2023-03-11T16:33:42.177Z,34.78
2023-03-11T16:34:42.124Z,34.74
2023-03-11T16:35:42.157Z,34.79
2023-03-11T16:36:42.153Z,34.79
2023-03-11T16:37:42.190Z,34.79
2023-03-11T16:38:42.210Z,34.81
2023-03-11T16:39:42.267Z,34.80
2023-03-11T16:40:42.322Z,34.80
2023-03-11T16:41:42.408Z,34.80
2023-03-11T16:42:42.438Z,34.83
2023-03-11T16:43:42.504Z,34.80
2023-03-11T16:44:42.545Z,34.79
2023-03-11T16:45:42.666Z,34.81
2023-03-11T16:46:42.667Z,34.81
2023-03-11T16:47:42.712Z,34.79
2023-03-11T16:48:42.772Z,34.81
2023-03-11T16:49:42.826Z,34.82
2023-03-11T16:50:42.897Z,34.83
2023-03-11T16:51:42.950Z,34.80
2023-03-11T16:52:43.044Z,34.83
2023-03-11T16:53:43.126Z,34.83
2023-03-11T16:54:43.121Z,34.82
2023-03-11T16:55:43.193Z,34.84
2023-03-11T16:56:43.247Z,34.84
2023-03-11T16:57:43.334Z,34.82
2023-03-11T16:58:43.367Z,34.85
2023-03-11T16:59:43.458Z,34.87
2023-03-11T17:00:43.490Z,34.86
2023-03-11T17:01:43.689Z,34.87
2023-03-11T17:02:43.634Z,34.85
2023-03-11T17:03:43.692Z,34.86
2023-03-11T17:04:44.576Z,34.86
2023-03-11T17:05:43.814Z,34.87
2023-03-11T17:06:44.048Z,34.86
2023-03-11T17:07:43.948Z,34.88
2023-03-11T17:08:44.011Z,34.86
2023-03-11T17:09:44.075Z,34.87
2023-03-11T17:10:44.204Z,34.88
2023-03-11T17:11:45.097Z,34.85
2023-03-11T17:12:44.286Z,34.87
2023-03-11T17:13:44.368Z,34.89
2023-03-11T17:14:44.407Z,34.87
2023-03-11T17:15:44.493Z,34.88
2023-03-11T17:16:44.574Z,34.88
2023-03-11T17:17:44.612Z,34.90
2023-03-11T17:18:44.680Z,34.90
2023-03-11T17:19:44.735Z,34.89
2023-03-11T17:20:44.793Z,34.90
2023-03-11T17:21:44.864Z,34.90
2023-03-11T17:22:44.928Z,34.87
2023-03-11T17:23:45.005Z,34.89
2023-03-11T17:24:45.120Z,34.91
2023-03-11T17:25:45.149Z,34.91
2023-03-11T17:26:45.211Z,34.92
2023-03-11T17:27:45.276Z,34.91
2023-03-11T17:28:45.345Z,34.88
2023-03-11T17:29:45.460Z,34.87
2023-03-11T17:30:45.541Z,34.88
2023-03-11T17:31:45.590Z,34.92
2023-03-11T17:32:45.716Z,34.90
2023-03-11T17:33:45.689Z,34.90
2023-03-11T17:34:45.734Z,34.91
2023-03-11T17:35:45.824Z,34.91
2023-03-11T17:36:45.863Z,34.94
2023-03-11T17:37:46.022Z,34.92
2023-03-11T17:38:46.016Z,34.88
2023-03-11T17:39:46.559Z,34.92
2023-03-11T17:40:46.147Z,34.92
2023-03-11T17:41:46.209Z,34.91
2023-03-11T17:42:46.301Z,34.92
2023-03-11T17:43:47.386Z,34.89
2023-03-11T17:44:51.852Z,34.89
2023-03-11T17:45:47.454Z,34.90
2023-03-11T17:46:46.527Z,34.89
2023-03-11T17:47:46.490Z,34.92
2023-03-11T17:48:46.536Z,34.92
2023-03-11T17:49:46.530Z,34.93
2023-03-11T17:50:46.547Z,34.94
2023-03-11T17:51:46.561Z,34.94
2023-03-11T17:52:46.610Z,34.92
2023-03-11T17:53:46.609Z,34.92
2023-03-11T17:54:46.612Z,34.92
2023-03-11T17:55:46.624Z,34.90
2023-03-11T17:56:46.654Z,34.91
2023-03-11T17:57:46.730Z,34.93
2023-03-11T17:58:46.805Z,34.93
2023-03-11T17:59:46.877Z,34.93
2023-03-11T18:00:46.944Z,34.94
2023-03-11T18:01:47.052Z,34.92
2023-03-11T18:02:47.100Z,34.92
2023-03-11T18:03:47.212Z,34.93
2023-03-11T18:04:47.269Z,34.91
2023-03-11T18:05:47.321Z,34.90
2023-03-11T18:06:47.401Z,34.89
2023-03-11T18:07:47.476Z,34.90
2023-03-11T18:08:47.552Z,34.91
2023-03-11T18:09:47.626Z,34.89
2023-03-11T18:10:47.702Z,34.85
2023-03-11T18:11:47.776Z,34.86
2023-03-11T18:12:47.844Z,34.86
2023-03-11T18:13:48.021Z,34.87
2023-03-11T18:14:48.008Z,34.89
2023-03-11T18:15:48.077Z,34.87
2023-03-11T18:16:48.188Z,34.88
2023-03-11T18:17:48.227Z,34.85
2023-03-11T18:18:48.318Z,34.86
2023-03-11T18:19:48.382Z,34.88
2023-03-11T18:20:48.523Z,34.87
2023-03-11T18:21:48.566Z,34.86
2023-03-11T18:22:48.587Z,34.87
2023-03-11T18:23:48.665Z,34.83
2023-03-11T18:24:48.754Z,34.84
2023-03-11T18:25:48.823Z,34.81
2023-03-11T18:26:48.911Z,34.84
2023-03-11T18:27:48.992Z,34.79
2023-03-11T18:28:49.039Z,34.78
2023-03-11T18:29:49.192Z,34.78
2023-03-11T18:30:49.198Z,34.77
2023-03-11T18:31:49.298Z,34.77
2023-03-11T18:32:49.353Z,34.76
2023-03-11T18:33:49.418Z,34.75
2023-03-11T18:34:49.505Z,34.74
2023-03-11T18:35:49.637Z,34.72
2023-03-11T18:36:49.655Z,34.74
2023-03-11T18:37:49.732Z,34.76
2023-03-11T18:38:49.805Z,34.73
2023-03-11T18:39:49.876Z,34.71
2023-03-11T18:40:49.948Z,34.75
2023-03-11T18:41:50.027Z,34.73
2023-03-11T18:42:50.134Z,34.71
2023-03-11T18:43:50.174Z,34.69
2023-03-11T18:44:50.318Z,34.71
2023-03-11T18:45:50.348Z,34.69
2023-03-11T18:46:50.411Z,34.67
2023-03-11T18:47:50.487Z,34.65
2023-03-11T18:48:50.575Z,34.67
2023-03-11T18:49:50.649Z,34.64
2023-03-11T18:50:50.734Z,34.66
2023-03-11T18:51:50.811Z,34.63
2023-03-11T18:52:50.881Z,34.65
2023-03-11T18:53:50.960Z,34.62
2023-03-11T18:54:51.098Z,34.65
2023-03-11T18:55:51.128Z,34.64
2023-03-11T18:56:51.257Z,34.63
2023-03-11T18:57:51.279Z,34.61
2023-03-11T18:58:51.340Z,34.60
2023-03-11T18:59:51.418Z,34.60
2023-03-11T19:00:51.588Z,34.61
2023-03-11T19:01:51.573Z,34.58
2023-03-11T19:02:51.658Z,34.58
2023-03-11T19:03:51.720Z,34.58
2023-03-11T19:04:52.627Z,34.57
2023-03-11T19:05:51.879Z,34.57
2023-03-11T19:06:51.963Z,34.56
2023-03-11T19:07:52.094Z,34.57
2023-03-11T19:08:52.116Z,34.55
2023-03-11T19:09:52.185Z,34.56
2023-03-11T19:10:52.274Z,34.56
2023-03-11T19:11:52.345Z,34.54
2023-03-11T19:12:52.429Z,34.55
2023-03-11T19:13:52.517Z,34.55
2023-03-11T19:14:52.591Z,34.55
2023-03-11T19:15:52.721Z,34.54
2023-03-11T19:16:52.799Z,34.52
2023-03-11T19:18:05.962Z,34.56
2023-03-11T19:18:53.933Z,34.56
2023-03-11T19:19:52.866Z,34.53
2023-03-11T19:20:52.909Z,34.55
2023-03-11T19:21:52.922Z,34.54
2023-03-11T19:22:52.944Z,34.53
2023-03-11T19:23:52.964Z,34.52
2023-03-11T19:24:52.991Z,34.53
2023-03-11T19:26:02.504Z,34.51
2023-03-11T19:26:54.039Z,34.52
2023-03-11T19:27:53.051Z,34.53
2023-03-11T19:28:53.057Z,34.50
2023-03-11T19:29:53.064Z,34.48
2023-03-11T19:30:53.109Z,34.49
2023-03-11T19:31:53.109Z,34.48
2023-03-11T19:32:53.245Z,34.48
2023-03-11T19:33:53.218Z,34.48
2023-03-11T19:34:53.159Z,34.48
2023-03-11T19:35:53.224Z,34.47
2023-03-11T19:36:53.262Z,34.48
2023-03-11T19:37:55.474Z,34.47
2023-03-11T19:38:53.352Z,34.46
2023-03-11T19:39:53.379Z,34.47
2023-03-11T19:40:53.393Z,34.47
2023-03-11T19:41:53.424Z,34.45
2023-03-11T19:42:53.452Z,34.44
2023-03-11T19:43:53.496Z,34.47
2023-03-11T19:44:53.488Z,34.45
2023-03-11T19:45:53.555Z,34.44
2023-03-11T19:46:53.627Z,34.45
2023-03-11T19:47:53.630Z,34.45
2023-03-11T19:48:53.595Z,34.44
2023-03-11T19:49:53.644Z,34.46
2023-03-11T19:50:53.654Z,34.46
2023-03-11T19:51:53.708Z,34.44
2023-03-11T19:52:53.710Z,34.44
2023-03-11T19:53:53.781Z,34.44
2023-03-11T19:54:53.759Z,34.43
2023-03-11T19:55:53.787Z,34.43
2023-03-11T19:56:53.878Z,34.44
2023-03-11T19:57:53.887Z,34.41
2023-03-11T19:58:53.851Z,34.43
2023-03-11T19:59:53.865Z,34.42
2023-03-11T20:00:53.892Z,34.42
2023-03-11T20:01:53.944Z,34.42
2023-03-11T20:02:53.984Z,34.44
2023-03-11T20:03:53.970Z,34.42
2023-03-11T20:04:54.055Z,34.45
2023-03-11T20:05:54.045Z,34.44
2023-03-11T20:06:54.108Z,34.43
2023-03-11T20:07:54.111Z,34.43
2023-03-11T20:08:54.223Z,34.43
2023-03-11T20:09:54.181Z,34.45
2023-03-11T20:10:54.307Z,34.44
2023-03-11T20:11:54.341Z,34.44
2023-03-11T20:13:01.993Z,34.43
2023-03-11T20:13:55.462Z,34.43
2023-03-11T20:14:54.507Z,34.46
2023-03-11T20:15:54.594Z,34.43
2023-03-11T20:16:54.510Z,34.44
2023-03-11T20:17:54.563Z,34.44
2023-03-11T20:18:54.539Z,34.42
2023-03-11T20:19:55.091Z,34.42
2023-03-11T20:20:54.572Z,34.42
2023-03-11T20:21:54.647Z,34.43
2023-03-11T20:22:54.605Z,34.45
2023-03-11T20:23:54.769Z,34.40
2023-03-11T20:24:54.678Z,34.42
2023-03-11T20:25:54.688Z,34.41
2023-03-11T20:26:54.807Z,34.40
2023-03-11T20:27:54.912Z,34.41
2023-03-11T20:28:54.905Z,34.40
2023-03-11T20:29:54.970Z,34.39
2023-03-11T20:30:55.097Z,34.40
2023-03-11T20:31:55.144Z,34.38
2023-03-11T20:32:55.264Z,34.38
2023-03-11T20:33:55.214Z,34.42
2023-03-11T20:34:55.276Z,34.39
2023-03-11T20:35:55.388Z,34.39
2023-03-11T20:36:55.403Z,34.40
2023-03-11T20:37:55.537Z,34.41
2023-03-11T20:38:55.626Z,34.37
2023-03-11T20:39:55.664Z,34.38
2023-03-11T20:40:55.669Z,34.37
2023-03-11T20:41:56.677Z,34.38
2023-03-11T20:42:55.834Z,34.40
2023-03-11T20:43:55.861Z,34.41
2023-03-11T20:44:55.946Z,34.38
2023-03-11T20:45:56.036Z,34.39
2023-03-11T20:46:56.187Z,34.41
2023-03-11T20:47:56.151Z,34.35
2023-03-11T20:48:56.216Z,34.37
2023-03-11T20:49:56.349Z,34.39
2023-03-11T20:50:56.379Z,34.39
2023-03-11T20:51:56.400Z,34.37
2023-03-11T20:52:56.517Z,34.39
2023-03-11T20:53:56.579Z,34.36
2023-03-11T20:54:56.758Z,34.36
2023-03-11T20:55:56.791Z,34.35
2023-03-11T20:56:56.816Z,34.38
2023-03-11T20:57:56.938Z,34.36
2023-03-11T20:58:56.953Z,34.38
2023-03-11T20:59:56.987Z,34.39
2023-03-11T21:00:57.108Z,34.38
2023-03-11T21:01:57.160Z,34.36
2023-03-11T21:02:57.306Z,34.36
2023-03-11T21:03:57.483Z,34.34
2023-03-11T21:04:57.354Z,34.35
2023-03-11T21:05:57.392Z,34.37
2023-03-11T21:06:57.593Z,34.35
2023-03-11T21:07:57.561Z,34.37
2023-03-11T21:08:57.658Z,34.34
2023-03-11T21:09:57.791Z,34.37
2023-03-11T21:10:57.840Z,34.35
2023-03-11T21:11:57.828Z,34.35
2023-03-11T21:12:58.033Z,34.35
2023-03-11T21:13:57.984Z,34.35
2023-03-11T21:14:58.156Z,34.35
2023-03-11T21:15:58.162Z,34.35
2023-03-11T21:16:58.335Z,34.34
2023-03-11T21:17:58.236Z,34.34
2023-03-11T21:18:58.410Z,34.35
2023-03-11T21:19:58.358Z,34.32
2023-03-11T21:20:58.423Z,34.31
2023-03-11T21:21:58.527Z,34.34
2023-03-11T21:22:58.620Z,34.34
2023-03-11T21:23:58.819Z,34.34
2023-03-11T21:24:58.736Z,34.33
2023-03-11T21:25:58.750Z,34.33
2023-03-11T21:26:59.217Z,34.33
2023-03-11T21:27:58.891Z,34.34
2023-03-11T21:28:58.978Z,34.35
2023-03-11T21:29:59.101Z,34.33
2023-03-11T21:30:59.121Z,34.35
2023-03-11T21:32:00.269Z,34.33
2023-03-11T21:32:59.354Z,34.36
2023-03-11T21:33:59.407Z,34.33
2023-03-11T21:34:59.454Z,34.32
2023-03-11T21:35:59.574Z,34.34
2023-03-11T21:36:59.508Z,34.34
2023-03-11T21:38:00.159Z,34.33
2023-03-11T21:39:02.856Z,34.33
2023-03-11T21:39:59.697Z,34.33
2023-03-11T21:40:59.748Z,34.32
2023-03-11T21:41:59.797Z,34.33
2023-03-11T21:42:59.724Z,34.31
2023-03-11T21:43:59.846Z,34.31
2023-03-11T21:44:59.871Z,34.32
2023-03-11T21:45:59.811Z,34.34